sensor_id;sensor_type;location;lat;lon;timestamp;temperature;humidity
69335;SHT31;56477;52.742;15.242;2023-01-09T00:01:51;4.17;98.22
69335;SHT31;56477;52.742;15.242;2023-01-09T00:04:17;4.17;98.19
69335;SHT31;56477;52.742;15.242;2023-01-09T00:06:44;4.17;98.08
69335;SHT31;56477;52.742;15.242;2023-01-09T00:09:20;4.15;98.19
69335;SHT31;56477;52.742;15.242;2023-01-09T00:11:46;4.18;98.17
69335;SHT31;56477;52.742;15.242;2023-01-09T00:14:16;4.15;98.10
69335;SHT31;56477;52.742;15.242;2023-01-09T00:16:42;4.11;98.12
69335;SHT31;56477;52.742;15.242;2023-01-09T00:19:10;4.11;98.19
69335;SHT31;56477;52.742;15.242;2023-01-09T00:21:37;4.08;98.26
69335;SHT31;56477;52.742;15.242;2023-01-09T00:24:03;4.10;98.28
69335;SHT31;56477;52.742;15.242;2023-01-09T00:26:30;4.10;98.24
69335;SHT31;56477;52.742;15.242;2023-01-09T00:28:55;4.02;98.40
69335;SHT31;56477;52.742;15.242;2023-01-09T00:31:22;4.00;98.66
69335;SHT31;56477;52.742;15.242;2023-01-09T00:33:57;3.97;98.66
69335;SHT31;56477;52.742;15.242;2023-01-09T00:36:23;4.01;98.65
69335;SHT31;56477;52.742;15.242;2023-01-09T00:38:50;4.01;98.61
69335;SHT31;56477;52.742;15.242;2023-01-09T00:41:20;3.98;98.61
69335;SHT31;56477;52.742;15.242;2023-01-09T00:43:51;3.97;98.58
69335;SHT31;56477;52.742;15.242;2023-01-09T00:46:19;4.00;98.67
69335;SHT31;56477;52.742;15.242;2023-01-09T00:48:47;4.01;98.67
69335;SHT31;56477;52.742;15.242;2023-01-09T00:51:16;3.98;98.59
69335;SHT31;56477;52.742;15.242;2023-01-09T00:53:44;3.97;98.64
69335;SHT31;56477;52.742;15.242;2023-01-09T00:56:14;3.95;98.62
69335;SHT31;56477;52.742;15.242;2023-01-09T00:58:41;3.95;98.65
69335;SHT31;56477;52.742;15.242;2023-01-09T01:01:07;4.01;98.58
69335;SHT31;56477;52.742;15.242;2023-01-09T01:03:33;4.07;98.46
69335;SHT31;56477;52.742;15.242;2023-01-09T01:05:59;4.07;98.39
69335;SHT31;56477;52.742;15.242;2023-01-09T01:08:44;4.05;98.36
69335;SHT31;56477;52.742;15.242;2023-01-09T01:11:11;4.07;98.28
69335;SHT31;56477;52.742;15.242;2023-01-09T01:13:39;4.12;98.19
69335;SHT31;56477;52.742;15.242;2023-01-09T01:16:08;4.02;98.09
69335;SHT31;56477;52.742;15.242;2023-01-09T01:18:35;4.08;98.28
69335;SHT31;56477;52.742;15.242;2023-01-09T01:21:08;4.02;98.15
69335;SHT31;56477;52.742;15.242;2023-01-09T01:23:35;4.11;98.08
69335;SHT31;56477;52.742;15.242;2023-01-09T01:26:06;4.08;98.06
69335;SHT31;56477;52.742;15.242;2023-01-09T01:28:33;4.07;98.01
69335;SHT31;56477;52.742;15.242;2023-01-09T01:30:59;4.11;98.01
69335;SHT31;56477;52.742;15.242;2023-01-09T01:33:25;4.02;98.00
69335;SHT31;56477;52.742;15.242;2023-01-09T01:36:06;4.07;98.07
69335;SHT31;56477;52.742;15.242;2023-01-09T01:38:34;4.00;98.03
69335;SHT31;56477;52.742;15.242;2023-01-09T01:41:01;4.00;98.13
69335;SHT31;56477;52.742;15.242;2023-01-09T01:43:46;3.94;98.17
69335;SHT31;56477;52.742;15.242;2023-01-09T01:46:16;3.93;98.33
69335;SHT31;56477;52.742;15.242;2023-01-09T01:48:42;3.94;98.39
69335;SHT31;56477;52.742;15.242;2023-01-09T01:51:09;3.93;98.49
69335;SHT31;56477;52.742;15.242;2023-01-09T01:53:39;3.90;98.43
69335;SHT31;56477;52.742;15.242;2023-01-09T01:56:11;3.90;98.52
69335;SHT31;56477;52.742;15.242;2023-01-09T01:58:55;3.89;98.38
69335;SHT31;56477;52.742;15.242;2023-01-09T02:01:24;3.87;98.45
69335;SHT31;56477;52.742;15.242;2023-01-09T02:03:52;3.79;98.29
69335;SHT31;56477;52.742;15.242;2023-01-09T02:06:19;3.73;98.55
69335;SHT31;56477;52.742;15.242;2023-01-09T02:08:46;3.73;98.61
69335;SHT31;56477;52.742;15.242;2023-01-09T02:11:13;3.69;98.61
69335;SHT31;56477;52.742;15.242;2023-01-09T02:13:39;3.64;98.83
69335;SHT31;56477;52.742;15.242;2023-01-09T02:19:22;3.53;99.04
69335;SHT31;56477;52.742;15.242;2023-01-09T02:22:11;3.56;99.09
69335;SHT31;56477;52.742;15.242;2023-01-09T02:33:15;3.29;99.65
69335;SHT31;56477;52.742;15.242;2023-01-09T02:41:37;3.26;99.99
69335;SHT31;56477;52.742;15.242;2023-01-09T02:44:25;3.32;99.99
69335;SHT31;56477;52.742;15.242;2023-01-09T02:47:04;3.29;99.99
69335;SHT31;56477;52.742;15.242;2023-01-09T02:49:33;3.31;99.99
69335;SHT31;56477;52.742;15.242;2023-01-09T02:58:00;3.28;99.99
69335;SHT31;56477;52.742;15.242;2023-01-09T03:03:39;3.28;99.99
69335;SHT31;56477;52.742;15.242;2023-01-09T03:06:29;3.29;99.99
69335;SHT31;56477;52.742;15.242;2023-01-09T03:08:59;3.28;99.99
69335;SHT31;56477;52.742;15.242;2023-01-09T03:11:31;3.28;99.99
69335;SHT31;56477;52.742;15.242;2023-01-09T03:14:04;3.31;99.99
69335;SHT31;56477;52.742;15.242;2023-01-09T03:16:35;3.33;99.99
69335;SHT31;56477;52.742;15.242;2023-01-09T03:19:06;3.39;99.99
69335;SHT31;56477;52.742;15.242;2023-01-09T03:21:33;3.35;99.99
69335;SHT31;56477;52.742;15.242;2023-01-09T03:24:00;3.38;99.99
69335;SHT31;56477;52.742;15.242;2023-01-09T03:26:27;3.39;99.99
69335;SHT31;56477;52.742;15.242;2023-01-09T03:28:57;3.36;99.96
69335;SHT31;56477;52.742;15.242;2023-01-09T03:31:24;3.35;99.86
69335;SHT31;56477;52.742;15.242;2023-01-09T03:33:50;3.28;99.93
69335;SHT31;56477;52.742;15.242;2023-01-09T03:36:17;3.28;99.99
69335;SHT31;56477;52.742;15.242;2023-01-09T03:38:43;3.28;99.99
69335;SHT31;56477;52.742;15.242;2023-01-09T03:41:09;3.23;99.99
69335;SHT31;56477;52.742;15.242;2023-01-09T03:43:35;3.22;99.99
69335;SHT31;56477;52.742;15.242;2023-01-09T03:46:02;3.22;99.99
69335;SHT31;56477;52.742;15.242;2023-01-09T03:48:28;3.26;99.99
69335;SHT31;56477;52.742;15.242;2023-01-09T03:50:55;3.25;99.99
69335;SHT31;56477;52.742;15.242;2023-01-09T03:53:23;3.25;99.99
69335;SHT31;56477;52.742;15.242;2023-01-09T03:55:52;3.22;99.99
69335;SHT31;56477;52.742;15.242;2023-01-09T03:58:19;3.22;99.99
69335;SHT31;56477;52.742;15.242;2023-01-09T04:00:47;3.23;99.99
69335;SHT31;56477;52.742;15.242;2023-01-09T04:03:18;3.22;99.99
69335;SHT31;56477;52.742;15.242;2023-01-09T04:05:46;3.22;99.99
69335;SHT31;56477;52.742;15.242;2023-01-09T04:08:13;3.23;99.99
69335;SHT31;56477;52.742;15.242;2023-01-09T04:10:39;3.25;99.99
69335;SHT31;56477;52.742;15.242;2023-01-09T04:13:05;3.23;99.99
69335;SHT31;56477;52.742;15.242;2023-01-09T04:15:31;3.21;99.99
69335;SHT31;56477;52.742;15.242;2023-01-09T04:17:57;3.21;99.99
69335;SHT31;56477;52.742;15.242;2023-01-09T04:20:23;3.22;99.99
69335;SHT31;56477;52.742;15.242;2023-01-09T04:22:49;3.25;99.99
69335;SHT31;56477;52.742;15.242;2023-01-09T04:25:15;3.22;99.99
69335;SHT31;56477;52.742;15.242;2023-01-09T04:27:41;3.22;99.99
69335;SHT31;56477;52.742;15.242;2023-01-09T04:30:07;3.22;99.99
69335;SHT31;56477;52.742;15.242;2023-01-09T04:32:33;3.21;99.99
69335;SHT31;56477;52.742;15.242;2023-01-09T04:35:00;3.19;99.92
69335;SHT31;56477;52.742;15.242;2023-01-09T04:37:25;3.18;99.98
69335;SHT31;56477;52.742;15.242;2023-01-09T04:39:51;3.22;99.95
69335;SHT31;56477;52.742;15.242;2023-01-09T04:42:20;3.19;99.85
69335;SHT31;56477;52.742;15.242;2023-01-09T04:44:47;3.28;99.75
69335;SHT31;56477;52.742;15.242;2023-01-09T04:47:12;3.25;99.66
69335;SHT31;56477;52.742;15.242;2023-01-09T04:49:39;3.18;99.60
69335;SHT31;56477;52.742;15.242;2023-01-09T04:52:05;3.19;99.64
69335;SHT31;56477;52.742;15.242;2023-01-09T04:54:31;3.18;99.71
69335;SHT31;56477;52.742;15.242;2023-01-09T04:56:57;3.18;99.65
69335;SHT31;56477;52.742;15.242;2023-01-09T04:59:23;3.18;99.71
69335;SHT31;56477;52.742;15.242;2023-01-09T05:01:49;3.21;99.62
69335;SHT31;56477;52.742;15.242;2023-01-09T05:04:16;3.21;99.59
69335;SHT31;56477;52.742;15.242;2023-01-09T05:06:42;3.21;99.43
69335;SHT31;56477;52.742;15.242;2023-01-09T05:09:08;3.25;99.30
69335;SHT31;56477;52.742;15.242;2023-01-09T05:11:34;3.22;99.40
69335;SHT31;56477;52.742;15.242;2023-01-09T05:14:00;3.22;99.38
69335;SHT31;56477;52.742;15.242;2023-01-09T05:16:26;3.23;99.20
69335;SHT31;56477;52.742;15.242;2023-01-09T05:18:52;3.25;99.25
69335;SHT31;56477;52.742;15.242;2023-01-09T05:21:22;3.23;99.30
69335;SHT31;56477;52.742;15.242;2023-01-09T05:23:48;3.18;99.36
69335;SHT31;56477;52.742;15.242;2023-01-09T05:26:14;3.18;99.36
69335;SHT31;56477;52.742;15.242;2023-01-09T05:28:40;3.12;99.53
69335;SHT31;56477;52.742;15.242;2023-01-09T05:31:06;3.15;99.46
69335;SHT31;56477;52.742;15.242;2023-01-09T05:33:32;3.19;99.41
69335;SHT31;56477;52.742;15.242;2023-01-09T05:35:58;3.16;99.28
69335;SHT31;56477;52.742;15.242;2023-01-09T05:38:24;3.21;99.28
69335;SHT31;56477;52.742;15.242;2023-01-09T05:40:50;3.22;99.24
69335;SHT31;56477;52.742;15.242;2023-01-09T05:43:16;3.21;99.12
69335;SHT31;56477;52.742;15.242;2023-01-09T05:45:42;3.22;99.14
69335;SHT31;56477;52.742;15.242;2023-01-09T05:48:08;3.19;99.28
69335;SHT31;56477;52.742;15.242;2023-01-09T05:50:34;3.21;99.14
69335;SHT31;56477;52.742;15.242;2023-01-09T05:53:00;3.23;99.14
69335;SHT31;56477;52.742;15.242;2023-01-09T05:55:26;3.26;99.02
69335;SHT31;56477;52.742;15.242;2023-01-09T05:57:52;3.29;98.84
69335;SHT31;56477;52.742;15.242;2023-01-09T06:00:18;3.35;98.86
69335;SHT31;56477;52.742;15.242;2023-01-09T06:02:44;3.35;98.75
69335;SHT31;56477;52.742;15.242;2023-01-09T06:05:10;3.38;98.60
69335;SHT31;56477;52.742;15.242;2023-01-09T06:07:37;3.38;98.62
69335;SHT31;56477;52.742;15.242;2023-01-09T06:10:07;3.43;98.51
69335;SHT31;56477;52.742;15.242;2023-01-09T06:12:35;3.43;98.46
69335;SHT31;56477;52.742;15.242;2023-01-09T06:15:01;3.43;98.30
69335;SHT31;56477;52.742;15.242;2023-01-09T06:17:27;3.39;98.22
69335;SHT31;56477;52.742;15.242;2023-01-09T06:19:53;3.38;98.34
69335;SHT31;56477;52.742;15.242;2023-01-09T06:22:19;3.39;98.59
69335;SHT31;56477;52.742;15.242;2023-01-09T06:24:45;3.39;98.35
69335;SHT31;56477;52.742;15.242;2023-01-09T06:27:11;3.38;98.27
69335;SHT31;56477;52.742;15.242;2023-01-09T06:29:38;3.36;98.44
69335;SHT31;56477;52.742;15.242;2023-01-09T06:32:04;3.36;98.61
69335;SHT31;56477;52.742;15.242;2023-01-09T06:34:30;3.36;98.43
69335;SHT31;56477;52.742;15.242;2023-01-09T06:36:56;3.38;98.46
69335;SHT31;56477;52.742;15.242;2023-01-09T06:39:22;3.39;98.43
69335;SHT31;56477;52.742;15.242;2023-01-09T06:41:48;3.39;98.28
69335;SHT31;56477;52.742;15.242;2023-01-09T06:44:14;3.36;98.16
69335;SHT31;56477;52.742;15.242;2023-01-09T06:46:40;3.28;98.37
69335;SHT31;56477;52.742;15.242;2023-01-09T06:49:08;3.23;98.39
69335;SHT31;56477;52.742;15.242;2023-01-09T06:51:34;3.21;98.43
69335;SHT31;56477;52.742;15.242;2023-01-09T06:54:00;3.15;98.72
69335;SHT31;56477;52.742;15.242;2023-01-09T06:56:26;3.08;99.07
69335;SHT31;56477;52.742;15.242;2023-01-09T06:58:52;3.07;98.99
69335;SHT31;56477;52.742;15.242;2023-01-09T07:01:18;3.07;99.32
69335;SHT31;56477;52.742;15.242;2023-01-09T07:03:44;3.09;99.15
69335;SHT31;56477;52.742;15.242;2023-01-09T07:06:11;3.07;99.19
69335;SHT31;56477;52.742;15.242;2023-01-09T07:08:37;3.04;99.09
69335;SHT31;56477;52.742;15.242;2023-01-09T07:11:03;3.07;99.06
69335;SHT31;56477;52.742;15.242;2023-01-09T07:13:29;3.07;99.29
69335;SHT31;56477;52.742;15.242;2023-01-09T07:15:55;3.02;99.31
69335;SHT31;56477;52.742;15.242;2023-01-09T07:18:22;3.04;99.55
69335;SHT31;56477;52.742;15.242;2023-01-09T07:20:48;3.02;99.54
69335;SHT31;56477;52.742;15.242;2023-01-09T07:23:14;3.01;99.55
69335;SHT31;56477;52.742;15.242;2023-01-09T07:25:41;3.01;99.53
69335;SHT31;56477;52.742;15.242;2023-01-09T07:28:07;3.01;99.55
69335;SHT31;56477;52.742;15.242;2023-01-09T07:30:33;3.00;99.66
69335;SHT31;56477;52.742;15.242;2023-01-09T07:32:59;2.97;99.85
69335;SHT31;56477;52.742;15.242;2023-01-09T07:35:25;2.98;99.72
69335;SHT31;56477;52.742;15.242;2023-01-09T07:37:51;2.98;99.99
69335;SHT31;56477;52.742;15.242;2023-01-09T07:40:17;3.01;99.99
69335;SHT31;56477;52.742;15.242;2023-01-09T07:42:43;3.04;99.99
69335;SHT31;56477;52.742;15.242;2023-01-09T07:45:10;3.07;99.99
69335;SHT31;56477;52.742;15.242;2023-01-09T07:47:36;3.08;99.99
69335;SHT31;56477;52.742;15.242;2023-01-09T07:50:04;3.12;99.99
69335;SHT31;56477;52.742;15.242;2023-01-09T07:52:30;3.13;99.99
69335;SHT31;56477;52.742;15.242;2023-01-09T07:54:56;3.12;99.99
69335;SHT31;56477;52.742;15.242;2023-01-09T07:57:22;3.15;99.99
69335;SHT31;56477;52.742;15.242;2023-01-09T07:59:48;3.12;99.99
69335;SHT31;56477;52.742;15.242;2023-01-09T08:02:14;3.13;99.99
69335;SHT31;56477;52.742;15.242;2023-01-09T08:04:40;3.16;99.99
69335;SHT31;56477;52.742;15.242;2023-01-09T08:07:06;3.19;99.99
69335;SHT31;56477;52.742;15.242;2023-01-09T08:09:32;3.19;99.99
69335;SHT31;56477;52.742;15.242;2023-01-09T08:11:58;3.25;99.99
69335;SHT31;56477;52.742;15.242;2023-01-09T08:14:24;3.19;99.99
69335;SHT31;56477;52.742;15.242;2023-01-09T08:16:50;3.16;99.99
69335;SHT31;56477;52.742;15.242;2023-01-09T08:19:16;3.16;99.99
69335;SHT31;56477;52.742;15.242;2023-01-09T08:21:42;3.21;99.99
69335;SHT31;56477;52.742;15.242;2023-01-09T08:24:08;3.21;99.99
69335;SHT31;56477;52.742;15.242;2023-01-09T08:26:34;3.26;99.99
69335;SHT31;56477;52.742;15.242;2023-01-09T08:29:00;3.28;99.99
69335;SHT31;56477;52.742;15.242;2023-01-09T08:31:26;3.33;99.99
69335;SHT31;56477;52.742;15.242;2023-01-09T08:33:52;3.36;99.99
69335;SHT31;56477;52.742;15.242;2023-01-09T08:36:18;3.38;99.99
69335;SHT31;56477;52.742;15.242;2023-01-09T08:38:44;3.38;99.99
69335;SHT31;56477;52.742;15.242;2023-01-09T08:41:10;3.38;99.99
69335;SHT31;56477;52.742;15.242;2023-01-09T08:43:55;3.36;99.99
69335;SHT31;56477;52.742;15.242;2023-01-09T08:46:40;3.35;99.99
69335;SHT31;56477;52.742;15.242;2023-01-09T08:49:25;3.39;99.99
69335;SHT31;56477;52.742;15.242;2023-01-09T08:51:51;3.43;99.99
69335;SHT31;56477;52.742;15.242;2023-01-09T08:54:17;3.42;99.99
69335;SHT31;56477;52.742;15.242;2023-01-09T08:56:43;3.42;99.99
69335;SHT31;56477;52.742;15.242;2023-01-09T08:59:09;3.43;99.99
69335;SHT31;56477;52.742;15.242;2023-01-09T09:01:35;3.44;99.99
69335;SHT31;56477;52.742;15.242;2023-01-09T09:04:02;3.55;99.99
69335;SHT31;56477;52.742;15.242;2023-01-09T09:06:30;3.53;99.99
69335;SHT31;56477;52.742;15.242;2023-01-09T09:08:57;3.46;99.99
69335;SHT31;56477;52.742;15.242;2023-01-09T09:11:34;3.46;99.99
69335;SHT31;56477;52.742;15.242;2023-01-09T09:14:01;3.50;99.99
69335;SHT31;56477;52.742;15.242;2023-01-09T09:16:48;3.53;99.99
69335;SHT31;56477;52.742;15.242;2023-01-09T09:19:14;3.52;99.99
69335;SHT31;56477;52.742;15.242;2023-01-09T09:21:40;3.49;99.99
69335;SHT31;56477;52.742;15.242;2023-01-09T09:24:06;3.53;99.99
69335;SHT31;56477;52.742;15.242;2023-01-09T09:26:32;3.56;99.99
69335;SHT31;56477;52.742;15.242;2023-01-09T09:28:58;3.60;99.99
69335;SHT31;56477;52.742;15.242;2023-01-09T09:31:24;3.59;99.99
69335;SHT31;56477;52.742;15.242;2023-01-09T09:33:50;3.60;99.99
69335;SHT31;56477;52.742;15.242;2023-01-09T09:36:16;3.60;99.99
69335;SHT31;56477;52.742;15.242;2023-01-09T09:38:42;3.56;99.99
69335;SHT31;56477;52.742;15.242;2023-01-09T09:41:31;3.58;99.99
69335;SHT31;56477;52.742;15.242;2023-01-09T09:44:28;3.60;99.99
69335;SHT31;56477;52.742;15.242;2023-01-09T09:52:34;3.60;99.99
69335;SHT31;56477;52.742;15.242;2023-01-09T09:55:14;3.62;99.99
69335;SHT31;56477;52.742;15.242;2023-01-09T09:57:41;3.64;99.99
69335;SHT31;56477;52.742;15.242;2023-01-09T10:00:15;3.64;99.99
69335;SHT31;56477;52.742;15.242;2023-01-09T10:02:55;3.67;99.99
69335;SHT31;56477;52.742;15.242;2023-01-09T10:05:27;3.67;99.99
69335;SHT31;56477;52.742;15.242;2023-01-09T10:07:55;3.66;99.99
69335;SHT31;56477;52.742;15.242;2023-01-09T10:10:32;3.67;99.99
69335;SHT31;56477;52.742;15.242;2023-01-09T10:12:59;3.71;99.99
69335;SHT31;56477;52.742;15.242;2023-01-09T10:16:01;3.71;99.99
69335;SHT31;56477;52.742;15.242;2023-01-09T10:21:21;3.71;99.99
69335;SHT31;56477;52.742;15.242;2023-01-09T10:24:02;3.71;99.99
69335;SHT31;56477;52.742;15.242;2023-01-09T10:26:45;3.74;99.99
69335;SHT31;56477;52.742;15.242;2023-01-09T10:29:24;3.79;99.99
69335;SHT31;56477;52.742;15.242;2023-01-09T10:35:34;3.93;99.99
69335;SHT31;56477;52.742;15.242;2023-01-09T10:38:04;3.90;99.99
69335;SHT31;56477;52.742;15.242;2023-01-09T10:40:38;3.91;99.99
69335;SHT31;56477;52.742;15.242;2023-01-09T10:43:26;3.97;99.99
69335;SHT31;56477;52.742;15.242;2023-01-09T10:45:58;4.02;99.99
69335;SHT31;56477;52.742;15.242;2023-01-09T10:48:27;4.05;99.99
69335;SHT31;56477;52.742;15.242;2023-01-09T10:50:55;4.17;99.99
69335;SHT31;56477;52.742;15.242;2023-01-09T10:53:42;4.18;99.99
69335;SHT31;56477;52.742;15.242;2023-01-09T10:56:31;4.21;99.99
69335;SHT31;56477;52.742;15.242;2023-01-09T10:58:57;4.17;99.99
69335;SHT31;56477;52.742;15.242;2023-01-09T11:01:30;4.15;99.99
69335;SHT31;56477;52.742;15.242;2023-01-09T11:03:57;4.14;99.99
69335;SHT31;56477;52.742;15.242;2023-01-09T11:06:31;4.11;99.99
69335;SHT31;56477;52.742;15.242;2023-01-09T11:09:00;4.14;99.99
69335;SHT31;56477;52.742;15.242;2023-01-09T11:11:45;4.18;99.99
69335;SHT31;56477;52.742;15.242;2023-01-09T11:16:55;4.20;99.99
69335;SHT31;56477;52.742;15.242;2023-01-09T11:19:23;4.12;99.99
69335;SHT31;56477;52.742;15.242;2023-01-09T11:21:59;4.18;99.99
69335;SHT31;56477;52.742;15.242;2023-01-09T11:24:30;4.28;99.99
69335;SHT31;56477;52.742;15.242;2023-01-09T11:29:41;4.21;99.99
69335;SHT31;56477;52.742;15.242;2023-01-09T11:32:23;4.22;99.99
69335;SHT31;56477;52.742;15.242;2023-01-09T11:34:49;4.25;99.99
69335;SHT31;56477;52.742;15.242;2023-01-09T11:37:27;4.24;99.99
69335;SHT31;56477;52.742;15.242;2023-01-09T11:39:55;4.27;99.99
69335;SHT31;56477;52.742;15.242;2023-01-09T11:42:24;4.34;99.99
69335;SHT31;56477;52.742;15.242;2023-01-09T11:45:20;4.34;99.99
69335;SHT31;56477;52.742;15.242;2023-01-09T11:48:15;4.29;99.99
69335;SHT31;56477;52.742;15.242;2023-01-09T11:50:52;4.35;99.99
69335;SHT31;56477;52.742;15.242;2023-01-09T11:53:19;4.41;99.99
69335;SHT31;56477;52.742;15.242;2023-01-09T11:55:48;4.41;99.99
69335;SHT31;56477;52.742;15.242;2023-01-09T11:58:19;4.42;99.99
69335;SHT31;56477;52.742;15.242;2023-01-09T12:03:26;4.46;99.99
69335;SHT31;56477;52.742;15.242;2023-01-09T12:08:52;4.55;99.99
69335;SHT31;56477;52.742;15.242;2023-01-09T12:14:16;4.60;99.99
69335;SHT31;56477;52.742;15.242;2023-01-09T12:36:13;4.84;99.99
69335;SHT31;56477;52.742;15.242;2023-01-09T12:38:53;4.81;99.99
69335;SHT31;56477;52.742;15.242;2023-01-09T12:44:57;4.86;99.99
69335;SHT31;56477;52.742;15.242;2023-01-09T12:52:52;4.96;99.99
69335;SHT31;56477;52.742;15.242;2023-01-09T12:55:23;4.97;99.99
69335;SHT31;56477;52.742;15.242;2023-01-09T12:57:54;4.97;99.99
69335;SHT31;56477;52.742;15.242;2023-01-09T13:00:27;4.99;99.99
69335;SHT31;56477;52.742;15.242;2023-01-09T13:03:32;5.01;99.99
69335;SHT31;56477;52.742;15.242;2023-01-09T13:06:00;5.06;99.99
69335;SHT31;56477;52.742;15.242;2023-01-09T13:08:33;5.01;99.99
69335;SHT31;56477;52.742;15.242;2023-01-09T13:14:12;5.14;99.99
69335;SHT31;56477;52.742;15.242;2023-01-09T13:16:45;5.13;99.99
69335;SHT31;56477;52.742;15.242;2023-01-09T13:19:14;5.20;99.99
69335;SHT31;56477;52.742;15.242;2023-01-09T13:21:42;5.16;99.99
69335;SHT31;56477;52.742;15.242;2023-01-09T13:24:40;5.18;99.99
69335;SHT31;56477;52.742;15.242;2023-01-09T13:27:16;5.18;99.99
69335;SHT31;56477;52.742;15.242;2023-01-09T13:29:49;5.23;99.99
69335;SHT31;56477;52.742;15.242;2023-01-09T13:32:38;5.24;99.99
69335;SHT31;56477;52.742;15.242;2023-01-09T13:35:14;5.26;99.99
69335;SHT31;56477;52.742;15.242;2023-01-09T13:37:41;5.24;99.99
69335;SHT31;56477;52.742;15.242;2023-01-09T13:43:00;5.27;99.99
69335;SHT31;56477;52.742;15.242;2023-01-09T13:45:29;5.30;99.99
69335;SHT31;56477;52.742;15.242;2023-01-09T13:50:43;5.37;99.99
69335;SHT31;56477;52.742;15.242;2023-01-09T13:58:26;5.85;99.99
69335;SHT31;56477;52.742;15.242;2023-01-09T14:00:58;5.86;99.99
69335;SHT31;56477;52.742;15.242;2023-01-09T14:03:28;5.89;99.99
69335;SHT31;56477;52.742;15.242;2023-01-09T14:08:26;5.73;99.99
69335;SHT31;56477;52.742;15.242;2023-01-09T14:10:54;5.69;99.99
69335;SHT31;56477;52.742;15.242;2023-01-09T14:13:25;5.75;99.99
69335;SHT31;56477;52.742;15.242;2023-01-09T14:16:07;5.79;99.99
69335;SHT31;56477;52.742;15.242;2023-01-09T14:18:49;5.78;99.99
69335;SHT31;56477;52.742;15.242;2023-01-09T14:21:16;5.80;99.99
69335;SHT31;56477;52.742;15.242;2023-01-09T14:23:59;5.83;99.99
69335;SHT31;56477;52.742;15.242;2023-01-09T14:26:49;5.80;99.99
69335;SHT31;56477;52.742;15.242;2023-01-09T14:29:40;5.82;99.99
69335;SHT31;56477;52.742;15.242;2023-01-09T14:37:27;5.83;99.99
69335;SHT31;56477;52.742;15.242;2023-01-09T14:39:55;5.85;99.99
69335;SHT31;56477;52.742;15.242;2023-01-09T14:42:26;5.82;99.99
69335;SHT31;56477;52.742;15.242;2023-01-09T14:50:06;5.85;99.99
69335;SHT31;56477;52.742;15.242;2023-01-09T14:53:09;5.83;99.99
69335;SHT31;56477;52.742;15.242;2023-01-09T14:58:10;5.92;99.99
69335;SHT31;56477;52.742;15.242;2023-01-09T15:00:46;5.95;99.99
69335;SHT31;56477;52.742;15.242;2023-01-09T15:03:12;5.95;99.99
69335;SHT31;56477;52.742;15.242;2023-01-09T15:05:39;5.95;99.99
69335;SHT31;56477;52.742;15.242;2023-01-09T15:08:05;5.97;99.99
69335;SHT31;56477;52.742;15.242;2023-01-09T15:10:34;5.99;99.99
69335;SHT31;56477;52.742;15.242;2023-01-09T15:13:04;5.99;99.99
69335;SHT31;56477;52.742;15.242;2023-01-09T15:15:31;6.02;99.99
69335;SHT31;56477;52.742;15.242;2023-01-09T15:17:59;6.02;99.99
69335;SHT31;56477;52.742;15.242;2023-01-09T15:20:28;5.99;99.99
69335;SHT31;56477;52.742;15.242;2023-01-09T15:22:56;6.00;99.99
69335;SHT31;56477;52.742;15.242;2023-01-09T15:25:28;6.03;99.99
69335;SHT31;56477;52.742;15.242;2023-01-09T15:27:57;6.02;99.99
69335;SHT31;56477;52.742;15.242;2023-01-09T15:33:10;5.97;99.99
69335;SHT31;56477;52.742;15.242;2023-01-09T15:35:44;5.99;99.99
69335;SHT31;56477;52.742;15.242;2023-01-09T15:38:14;5.97;99.99
69335;SHT31;56477;52.742;15.242;2023-01-09T15:40:41;6.00;99.99
69335;SHT31;56477;52.742;15.242;2023-01-09T15:43:11;5.97;99.99
69335;SHT31;56477;52.742;15.242;2023-01-09T15:45:41;6.00;99.99
69335;SHT31;56477;52.742;15.242;2023-01-09T15:50:48;5.93;99.99
69335;SHT31;56477;52.742;15.242;2023-01-09T15:53:17;5.95;99.99
69335;SHT31;56477;52.742;15.242;2023-01-09T15:55:43;5.90;99.99
69335;SHT31;56477;52.742;15.242;2023-01-09T15:58:26;5.82;99.99
69335;SHT31;56477;52.742;15.242;2023-01-09T16:01:00;5.80;99.99
69335;SHT31;56477;52.742;15.242;2023-01-09T16:03:26;5.78;99.99
69335;SHT31;56477;52.742;15.242;2023-01-09T16:05:56;5.69;99.99
69335;SHT31;56477;52.742;15.242;2023-01-09T16:08:39;5.68;99.99
69335;SHT31;56477;52.742;15.242;2023-01-09T16:11:09;5.66;99.99
69335;SHT31;56477;52.742;15.242;2023-01-09T16:13:44;5.62;99.99
69335;SHT31;56477;52.742;15.242;2023-01-09T16:16:11;5.60;99.99
69335;SHT31;56477;52.742;15.242;2023-01-09T16:18:49;5.58;99.56
69335;SHT31;56477;52.742;15.242;2023-01-09T16:21:22;5.58;99.49
69335;SHT31;56477;52.742;15.242;2023-01-09T16:23:52;5.55;98.95
69335;SHT31;56477;52.742;15.242;2023-01-09T16:26:22;5.54;98.78
69335;SHT31;56477;52.742;15.242;2023-01-09T16:28:48;5.52;98.46
69335;SHT31;56477;52.742;15.242;2023-01-09T16:31:24;5.51;98.07
69335;SHT31;56477;52.742;15.242;2023-01-09T16:33:56;5.54;97.58
69335;SHT31;56477;52.742;15.242;2023-01-09T16:36:23;5.54;96.81
69335;SHT31;56477;52.742;15.242;2023-01-09T16:38:49;5.54;96.45
69335;SHT31;56477;52.742;15.242;2023-01-09T16:41:17;5.47;96.48
69335;SHT31;56477;52.742;15.242;2023-01-09T16:44:03;5.52;95.78
69335;SHT31;56477;52.742;15.242;2023-01-09T16:46:39;5.52;95.38
69335;SHT31;56477;52.742;15.242;2023-01-09T16:49:19;5.47;95.74
69335;SHT31;56477;52.742;15.242;2023-01-09T16:51:47;5.44;95.46
69335;SHT31;56477;52.742;15.242;2023-01-09T16:54:14;5.47;94.92
69335;SHT31;56477;52.742;15.242;2023-01-09T16:56:42;5.39;95.25
69335;SHT31;56477;52.742;15.242;2023-01-09T16:59:11;5.35;95.20
69335;SHT31;56477;52.742;15.242;2023-01-09T17:01:39;5.27;95.23
69335;SHT31;56477;52.742;15.242;2023-01-09T17:04:13;5.21;95.20
69335;SHT31;56477;52.742;15.242;2023-01-09T17:06:40;5.18;95.05
69335;SHT31;56477;52.742;15.242;2023-01-09T17:09:15;5.13;95.11
69335;SHT31;56477;52.742;15.242;2023-01-09T17:11:42;5.17;94.84
69335;SHT31;56477;52.742;15.242;2023-01-09T17:14:10;5.13;94.91
69335;SHT31;56477;52.742;15.242;2023-01-09T17:16:37;5.10;94.48
69335;SHT31;56477;52.742;15.242;2023-01-09T17:19:03;4.99;94.96
69335;SHT31;56477;52.742;15.242;2023-01-09T17:21:30;4.99;94.95
69335;SHT31;56477;52.742;15.242;2023-01-09T17:23:57;4.93;95.14
69335;SHT31;56477;52.742;15.242;2023-01-09T17:26:45;4.86;95.26
69335;SHT31;56477;52.742;15.242;2023-01-09T17:29:32;4.86;95.16
69335;SHT31;56477;52.742;15.242;2023-01-09T17:31:59;4.80;95.65
69335;SHT31;56477;52.742;15.242;2023-01-09T17:34:25;4.75;95.85
69335;SHT31;56477;52.742;15.242;2023-01-09T17:36:52;4.75;95.70
69335;SHT31;56477;52.742;15.242;2023-01-09T17:39:20;4.79;95.25
69335;SHT31;56477;52.742;15.242;2023-01-09T17:41:47;4.86;94.81
69335;SHT31;56477;52.742;15.242;2023-01-09T17:44:13;4.97;94.38